sensor_id;sensor_type;location;lat;lon;timestamp;pressure;altitude;pressure_sealevel;temperature;humidity
69842;BME280;57138;51.326;-0.068;2023-05-07T00:00:18;99627.25;;;12.67;100.00
69842;BME280;57138;51.326;-0.068;2023-05-07T00:02:45;99626.41;;;12.67;100.00
69842;BME280;57138;51.326;-0.068;2023-05-07T00:05:10;99626.88;;;12.64;100.00
69842;BME280;57138;51.326;-0.068;2023-05-07T00:07:36;99643.56;;;12.66;100.00
69842;BME280;57138;51.326;-0.068;2023-05-07T00:10:02;99626.25;;;12.62;100.00
69842;BME280;57138;51.326;-0.068;2023-05-07T00:12:27;99642.97;;;12.64;100.00
69842;BME280;57138;51.326;-0.068;2023-05-07T00:14:55;99636.75;;;12.63;100.00
69842;BME280;57138;51.326;-0.068;2023-05-07T00:17:20;99634.50;;;12.60;100.00
69842;BME280;57138;51.326;-0.068;2023-05-07T00:19:46;99626.91;;;12.57;100.00
69842;BME280;57138;51.326;-0.068;2023-05-07T00:22:11;99640.53;;;12.55;100.00
69842;BME280;57138;51.326;-0.068;2023-05-07T00:24:37;99639.94;;;12.53;100.00
69842;BME280;57138;51.326;-0.068;2023-05-07T00:27:02;99640.34;;;12.50;100.00
69842;BME280;57138;51.326;-0.068;2023-05-07T00:29:27;99645.94;;;12.49;100.00
69842;BME280;57138;51.326;-0.068;2023-05-07T00:31:53;99644.28;;;12.48;100.00
69842;BME280;57138;51.326;-0.068;2023-05-07T00:34:20;99645.13;;;12.48;100.00
69842;BME280;57138;51.326;-0.068;2023-05-07T00:36:46;99630.31;;;12.39;100.00
69842;BME280;57138;51.326;-0.068;2023-05-07T00:39:11;99630.31;;;12.39;100.00
69842;BME280;57138;51.326;-0.068;2023-05-07T00:41:36;99637.72;;;12.44;100.00
69842;BME280;57138;51.326;-0.068;2023-05-07T00:44:02;99630.75;;;12.36;100.00
69842;BME280;57138;51.326;-0.068;2023-05-07T00:46:28;99639.00;;;12.34;100.00
69842;BME280;57138;51.326;-0.068;2023-05-07T00:48:55;99636.13;;;12.29;100.00
69842;BME280;57138;51.326;-0.068;2023-05-07T00:51:21;99628.72;;;12.25;100.00
69842;BME280;57138;51.326;-0.068;2023-05-07T00:53:47;99632.03;;;12.27;100.00
69842;BME280;57138;51.326;-0.068;2023-05-07T00:56:13;99641.09;;;12.26;100.00
69842;BME280;57138;51.326;-0.068;2023-05-07T00:58:38;99635.97;;;12.24;100.00
69842;BME280;57138;51.326;-0.068;2023-05-07T01:01:05;99637.59;;;12.25;100.00
69842;BME280;57138;51.326;-0.068;2023-05-07T01:03:30;99623.63;;;12.16;100.00
69842;BME280;57138;51.326;-0.068;2023-05-07T01:05:57;99632.69;;;12.22;100.00
69842;BME280;57138;51.326;-0.068;2023-05-07T01:08:24;99632.47;;;12.23;100.00
69842;BME280;57138;51.326;-0.068;2023-05-07T01:10:52;99622.38;;;12.19;100.00
69842;BME280;57138;51.326;-0.068;2023-05-07T01:13:19;99632.47;;;12.23;100.00
69842;BME280;57138;51.326;-0.068;2023-05-07T01:15:45;99628.34;;;12.21;100.00
69842;BME280;57138;51.326;-0.068;2023-05-07T01:18:10;99626.09;;;12.18;100.00
69842;BME280;57138;51.326;-0.068;2023-05-07T01:20:36;99617.66;;;12.14;100.00
69842;BME280;57138;51.326;-0.068;2023-05-07T01:23:03;99618.69;;;12.13;100.00
69842;BME280;57138;51.326;-0.068;2023-05-07T01:25:28;99611.25;;;12.15;100.00
69842;BME280;57138;51.326;-0.068;2023-05-07T01:27:55;99606.56;;;12.11;100.00
69842;BME280;57138;51.326;-0.068;2023-05-07T01:30:21;99605.13;;;12.08;100.00
69842;BME280;57138;51.326;-0.068;2023-05-07T01:33:09;99612.72;;;12.11;100.00
69842;BME280;57138;51.326;-0.068;2023-05-07T01:35:38;99607.59;;;12.10;100.00
69842;BME280;57138;51.326;-0.068;2023-05-07T01:38:05;99617.28;;;12.04;100.00
69842;BME280;57138;51.326;-0.068;2023-05-07T01:40:32;99622.25;;;12.00;100.00
69842;BME280;57138;51.326;-0.068;2023-05-07T01:42:59;99621.88;;;11.97;100.00
69842;BME280;57138;51.326;-0.068;2023-05-07T01:45:25;99622.47;;;11.99;100.00
69842;BME280;57138;51.326;-0.068;2023-05-07T01:47:52;99621.66;;;11.98;100.00
69842;BME280;57138;51.326;-0.068;2023-05-07T01:50:19;99621.44;;;12.00;100.00
69842;BME280;57138;51.326;-0.068;2023-05-07T01:52:44;99623.91;;;12.01;100.00
69842;BME280;57138;51.326;-0.068;2023-05-07T01:55:10;99627.19;;;12.03;100.00
69842;BME280;57138;51.326;-0.068;2023-05-07T01:57:36;99630.47;;;12.05;100.00
69842;BME280;57138;51.326;-0.068;2023-05-07T02:00:02;99629.22;;;12.08;100.00
69842;BME280;57138;51.326;-0.068;2023-05-07T02:02:30;99622.22;;;12.07;100.00
69842;BME280;57138;51.326;-0.068;2023-05-07T02:04:56;99625.97;;;12.06;100.00
69842;BME280;57138;51.326;-0.068;2023-05-07T02:07:22;99625.97;;;12.06;100.00
69842;BME280;57138;51.326;-0.068;2023-05-07T02:09:47;99631.75;;;12.03;100.00
69842;BME280;57138;51.326;-0.068;2023-05-07T02:12:13;99630.09;;;12.02;100.00
69842;BME280;57138;51.326;-0.068;2023-05-07T02:14:38;99633.19;;;11.99;100.00
69842;BME280;57138;51.326;-0.068;2023-05-07T02:17:03;99643.31;;;11.97;100.00
69842;BME280;57138;51.326;-0.068;2023-05-07T02:19:29;99643.06;;;11.92;100.00
69842;BME280;57138;51.326;-0.068;2023-05-07T02:21:54;99646.59;;;11.85;100.00
69842;BME280;57138;51.326;-0.068;2023-05-07T02:24:20;99652.38;;;11.82;100.00
69842;BME280;57138;51.326;-0.068;2023-05-07T02:26:46;99657.72;;;11.82;100.00
69842;BME280;57138;51.326;-0.068;2023-05-07T02:29:11;99651.16;;;11.78;100.00
69842;BME280;57138;51.326;-0.068;2023-05-07T02:31:36;99644.75;;;11.79;100.00
69842;BME280;57138;51.326;-0.068;2023-05-07T02:34:02;99642.50;;;11.76;100.00
69842;BME280;57138;51.326;-0.068;2023-05-07T02:36:27;99635.50;;;11.75;100.00
69842;BME280;57138;51.326;-0.068;2023-05-07T02:38:53;99645.81;;;11.78;100.00
69842;BME280;57138;51.326;-0.068;2023-05-07T02:41:19;99634.03;;;11.79;100.00
69842;BME280;57138;51.326;-0.068;2023-05-07T02:43:45;99639.59;;;11.84;100.00
69842;BME280;57138;51.326;-0.068;2023-05-07T02:46:11;99638.97;;;11.89;100.00
69842;BME280;57138;51.326;-0.068;2023-05-07T02:48:36;99642.47;;;11.90;100.00
69842;BME280;57138;51.326;-0.068;2023-05-07T02:51:03;99647.44;;;11.93;100.00
69842;BME280;57138;51.326;-0.068;2023-05-07T02:53:28;99646.19;;;11.95;100.00
69842;BME280;57138;51.326;-0.068;2023-05-07T02:55:59;99634.22;;;11.91;100.00
69842;BME280;57138;51.326;-0.068;2023-05-07T02:58:25;99640.00;;;11.95;100.00
69842;BME280;57138;51.326;-0.068;2023-05-07T03:00:52;99635.25;;;11.97;100.00
69842;BME280;57138;51.326;-0.068;2023-05-07T03:03:17;99646.59;;;11.99;100.00
69842;BME280;57138;51.326;-0.068;2023-05-07T03:05:43;99641.81;;;12.01;100.00
69842;BME280;57138;51.326;-0.068;2023-05-07T03:08:09;99651.53;;;12.02;100.00
69842;BME280;57138;51.326;-0.068;2023-05-07T03:10:36;99646.59;;;11.99;100.00
69842;BME280;57138;51.326;-0.068;2023-05-07T03:13:01;99655.44;;;11.99;100.00
69842;BME280;57138;51.326;-0.068;2023-05-07T03:15:27;99662.22;;;12.02;100.00
69842;BME280;57138;51.326;-0.068;2023-05-07T03:17:52;99653.59;;;12.00;100.00
69842;BME280;57138;51.326;-0.068;2023-05-07T03:20:18;99662.03;;;12.03;100.00
69842;BME280;57138;51.326;-0.068;2023-05-07T03:22:43;99672.13;;;12.01;100.00
69842;BME280;57138;51.326;-0.068;2023-05-07T03:25:10;99658.94;;;12.00;100.00
69842;BME280;57138;51.326;-0.068;2023-05-07T03:27:35;99663.50;;;11.93;100.00
69842;BME280;57138;51.326;-0.068;2023-05-07T03:30:01;99664.53;;;11.85;100.00
69842;BME280;57138;51.326;-0.068;2023-05-07T03:32:26;99657.28;;;11.85;100.00
69842;BME280;57138;51.326;-0.068;2023-05-07T03:34:52;99664.31;;;11.86;100.00
69842;BME280;57138;51.326;-0.068;2023-05-07T03:37:18;99663.91;;;11.83;100.00
69842;BME280;57138;51.326;-0.068;2023-05-07T03:39:43;99668.44;;;11.82;100.00
69842;BME280;57138;51.326;-0.068;2023-05-07T03:42:08;99670.50;;;11.80;100.00
69842;BME280;57138;51.326;-0.068;2023-05-07T03:44:34;99678.34;;;11.82;100.00
69842;BME280;57138;51.326;-0.068;2023-05-07T03:47:01;99678.72;;;11.85;100.00
69842;BME280;57138;51.326;-0.068;2023-05-07T03:49:27;99668.44;;;11.82;100.00
69842;BME280;57138;51.326;-0.068;2023-05-07T03:51:52;99677.69;;;11.86;100.00
69842;BME280;57138;51.326;-0.068;2023-05-07T03:54:17;99677.09;;;11.84;100.00
69842;BME280;57138;51.326;-0.068;2023-05-07T03:56:43;99682.84;;;11.88;100.00
69842;BME280;57138;51.326;-0.068;2023-05-07T03:59:08;99682.84;;;11.88;100.00
69842;BME280;57138;51.326;-0.068;2023-05-07T04:01:34;99685.31;;;11.90;100.00
69842;BME280;57138;51.326;-0.068;2023-05-07T04:04:03;99687.19;;;11.89;100.00
69842;BME280;57138;51.326;-0.068;2023-05-07T04:06:30;99687.41;;;11.87;100.00
69842;BME280;57138;51.326;-0.068;2023-05-07T04:08:56;99684.28;;;11.84;100.00
69842;BME280;57138;51.326;-0.068;2023-05-07T04:11:22;99693.16;;;11.84;100.00
69842;BME280;57138;51.326;-0.068;2023-05-07T04:13:47;99689.25;;;11.80;100.00
69842;BME280;57138;51.326;-0.068;2023-05-07T04:16:13;99694.00;;;11.78;100.00
69842;BME280;57138;51.326;-0.068;2023-05-07T04:18:38;99700.19;;;11.72;100.00
69842;BME280;57138;51.326;-0.068;2023-05-07T04:21:04;99703.47;;;11.74;100.00
69842;BME280;57138;51.326;-0.068;2023-05-07T04:23:30;99706.38;;;11.73;100.00
69842;BME280;57138;51.326;-0.068;2023-05-07T04:25:55;99709.25;;;11.71;100.00
69842;BME280;57138;51.326;-0.068;2023-05-07T04:28:22;99694.03;;;11.65;100.00
69842;BME280;57138;51.326;-0.068;2023-05-07T04:30:48;99717.72;;;11.68;100.00
69842;BME280;57138;51.326;-0.068;2023-05-07T04:33:14;99715.03;;;11.68;100.00
69842;BME280;57138;51.326;-0.068;2023-05-07T04:35:42;99712.56;;;11.66;100.00
69842;BME280;57138;51.326;-0.068;2023-05-07T04:38:07;99716.25;;;11.65;100.00
69842;BME280;57138;51.326;-0.068;2023-05-07T04:40:33;99718.72;;;11.67;100.00
69842;BME280;57138;51.326;-0.068;2023-05-07T04:43:00;99717.09;;;11.66;100.00
69842;BME280;57138;51.326;-0.068;2023-05-07T04:45:26;99726.16;;;11.65;100.00
69842;BME280;57138;51.326;-0.068;2023-05-07T04:47:51;99728.63;;;11.66;100.00
69842;BME280;57138;51.326;-0.068;2023-05-07T04:50:17;99726.38;;;11.63;100.00
69842;BME280;57138;51.326;-0.068;2023-05-07T04:52:44;99714.66;;;11.58;100.00
69842;BME280;57138;51.326;-0.068;2023-05-07T04:55:10;99715.03;;;11.61;100.00
69842;BME280;57138;51.326;-0.068;2023-05-07T04:57:36;99719.56;;;11.61;100.00
69842;BME280;57138;51.326;-0.068;2023-05-07T05:00:01;99725.75;;;11.61;100.00
69842;BME280;57138;51.326;-0.068;2023-05-07T05:02:28;99719.16;;;11.57;100.00
69842;BME280;57138;51.326;-0.068;2023-05-07T05:04:53;99728.63;;;11.60;100.00
69842;BME280;57138;51.326;-0.068;2023-05-07T05:07:18;99726.97;;;11.59;100.00
69842;BME280;57138;51.326;-0.068;2023-05-07T05:09:44;99732.75;;;11.62;100.00
69842;BME280;57138;51.326;-0.068;2023-05-07T05:12:09;99738.94;;;11.63;100.00
69842;BME280;57138;51.326;-0.068;2023-05-07T05:14:35;99738.50;;;11.59;100.00
69842;BME280;57138;51.326;-0.068;2023-05-07T05:17:00;99731.13;;;11.55;100.00
69842;BME280;57138;51.326;-0.068;2023-05-07T05:19:26;99736.06;;;11.58;100.00
69842;BME280;57138;51.326;-0.068;2023-05-07T05:21:51;99744.50;;;11.61;100.00
69842;BME280;57138;51.326;-0.068;2023-05-07T05:24:16;99746.97;;;11.63;100.00
69842;BME280;57138;51.326;-0.068;2023-05-07T05:26:42;99750.25;;;11.65;100.00
69842;BME280;57138;51.326;-0.068;2023-05-07T05:29:07;99748.38;;;11.65;100.00
69842;BME280;57138;51.326;-0.068;2023-05-07T05:31:33;99740.56;;;11.64;100.00
69842;BME280;57138;51.326;-0.068;2023-05-07T05:33:59;99744.69;;;11.66;100.00
69842;BME280;57138;51.326;-0.068;2023-05-07T05:36:24;99754.19;;;11.69;100.00
69842;BME280;57138;51.326;-0.068;2023-05-07T05:38:51;99755.19;;;11.68;100.00
69842;BME280;57138;51.326;-0.068;2023-05-07T05:41:16;99755.41;;;11.66;100.00
69842;BME280;57138;51.326;-0.068;2023-05-07T05:43:41;99761.38;;;11.68;100.00
69842;BME280;57138;51.326;-0.068;2023-05-07T05:46:07;99766.50;;;11.70;100.00
69842;BME280;57138;51.326;-0.068;2023-05-07T05:48:34;99763.44;;;11.73;100.00
69842;BME280;57138;51.326;-0.068;2023-05-07T05:50:59;99765.69;;;11.76;100.00
69842;BME280;57138;51.326;-0.068;2023-05-07T05:53:25;99773.31;;;11.79;100.00
69842;BME280;57138;51.326;-0.068;2023-05-07T05:55:50;99781.13;;;11.81;100.00
69842;BME280;57138;51.326;-0.068;2023-05-07T05:58:16;99782.81;;;11.82;100.00
69842;BME280;57138;51.326;-0.068;2023-05-07T06:00:41;99786.72;;;11.86;100.00
69842;BME280;57138;51.326;-0.068;2023-05-07T06:03:07;99779.69;;;11.85;100.00
69842;BME280;57138;51.326;-0.068;2023-05-07T06:05:32;99783.00;;;11.87;100.00
69842;BME280;57138;51.326;-0.068;2023-05-07T06:07:58;99785.03;;;11.92;100.00
69842;BME280;57138;51.326;-0.068;2023-05-07T06:10:23;99792.09;;;11.93;100.00
69842;BME280;57138;51.326;-0.068;2023-05-07T06:12:49;99782.63;;;11.97;100.00
69842;BME280;57138;51.326;-0.068;2023-05-07T06:15:14;99781.78;;;11.96;100.00
69842;BME280;57138;51.326;-0.068;2023-05-07T06:17:40;99785.91;;;11.99;100.00
69842;BME280;57138;51.326;-0.068;2023-05-07T06:20:06;99790.84;;;12.02;100.00
69842;BME280;57138;51.326;-0.068;2023-05-07T06:22:31;99787.97;;;12.03;100.00
69842;BME280;57138;51.326;-0.068;2023-05-07T06:24:57;99795.59;;;12.07;100.00
69842;BME280;57138;51.326;-0.068;2023-05-07T06:27:22;99798.06;;;12.08;100.00
69842;BME280;57138;51.326;-0.068;2023-05-07T06:29:48;99794.34;;;12.09;100.00
69842;BME280;57138;51.326;-0.068;2023-05-07T06:32:14;99797.63;;;12.11;100.00
69842;BME280;57138;51.326;-0.068;2023-05-07T06:34:40;99798.06;;;12.08;100.00
69842;BME280;57138;51.326;-0.068;2023-05-07T06:37:06;99804.63;;;12.12;100.00
69842;BME280;57138;51.326;-0.068;2023-05-07T06:39:31;99794.97;;;12.11;100.00
69842;BME280;57138;51.326;-0.068;2023-05-07T06:41:57;99799.91;;;12.14;100.00
69842;BME280;57138;51.326;-0.068;2023-05-07T06:44:23;99808.97;;;12.13;100.00
69842;BME280;57138;51.326;-0.068;2023-05-07T06:46:48;99807.94;;;12.14;100.00
69842;BME280;57138;51.326;-0.068;2023-05-07T06:49:14;99816.59;;;12.16;100.00
69842;BME280;57138;51.326;-0.068;2023-05-07T06:51:40;99806.88;;;12.15;100.00
69842;BME280;57138;51.326;-0.068;2023-05-07T06:54:06;99806.06;;;12.21;100.00
69842;BME280;57138;51.326;-0.068;2023-05-07T06:56:32;99802.56;;;12.21;100.00
69842;BME280;57138;51.326;-0.068;2023-05-07T06:58:59;99803.78;;;12.18;100.00
69842;BME280;57138;51.326;-0.068;2023-05-07T07:01:26;99807.31;;;12.19;100.00
69842;BME280;57138;51.326;-0.068;2023-05-07T07:03:51;99805.03;;;12.22;100.00
69842;BME280;57138;51.326;-0.068;2023-05-07T07:06:17;99807.28;;;12.26;100.00
69842;BME280;57138;51.326;-0.068;2023-05-07T07:08:42;99807.72;;;12.22;100.00
69842;BME280;57138;51.326;-0.068;2023-05-07T07:11:09;99811.41;;;12.28;100.00
69842;BME280;57138;51.326;-0.068;2023-05-07T07:13:35;99803.16;;;12.30;100.00
69842;BME280;57138;51.326;-0.068;2023-05-07T07:16:00;99808.50;;;12.36;100.00
69842;BME280;57138;51.326;-0.068;2023-05-07T07:18:26;99801.47;;;12.35;100.00
69842;BME280;57138;51.326;-0.068;2023-05-07T07:20:51;99805.19;;;12.41;100.00
69842;BME280;57138;51.326;-0.068;2023-05-07T07:23:17;99817.16;;;12.45;100.00
69842;BME280;57138;51.326;-0.068;2023-05-07T07:25:42;99815.69;;;12.49;100.00
69842;BME280;57138;51.326;-0.068;2023-05-07T07:28:07;99830.94;;;12.55;100.00
69842;BME280;57138;51.326;-0.068;2023-05-07T07:30:33;99839.59;;;12.57;100.00
69842;BME280;57138;51.326;-0.068;2023-05-07T07:32:58;99836.50;;;12.61;100.00
69842;BME280;57138;51.326;-0.068;2023-05-07T07:35:31;99835.44;;;12.62;100.00
69842;BME280;57138;51.326;-0.068;2023-05-07T07:37:56;99838.13;;;12.62;100.00
69842;BME280;57138;51.326;-0.068;2023-05-07T07:40:23;99835.03;;;12.65;100.00
69842;BME280;57138;51.326;-0.068;2023-05-07T07:42:48;99837.72;;;12.65;100.00
69842;BME280;57138;51.326;-0.068;2023-05-07T07:45:13;99841.00;;;12.67;100.00
69842;BME280;57138;51.326;-0.068;2023-05-07T07:47:40;99847.19;;;12.67;100.00
69842;BME280;57138;51.326;-0.068;2023-05-07T07:50:06;99837.91;;;12.63;100.00
69842;BME280;57138;51.326;-0.068;2023-05-07T07:52:32;99841.00;;;12.67;100.00
69842;BME280;57138;51.326;-0.068;2023-05-07T07:54:57;99838.31;;;12.67;100.00
69842;BME280;57138;51.326;-0.068;2023-05-07T07:57:22;99838.94;;;12.69;100.00
69842;BME280;57138;51.326;-0.068;2023-05-07T07:59:49;99849.44;;;12.77;100.00
69842;BME280;57138;51.326;-0.068;2023-05-07T08:02:15;99844.28;;;12.75;100.00
69842;BME280;57138;51.326;-0.068;2023-05-07T08:04:43;99845.94;;;12.76;100.00
69842;BME280;57138;51.326;-0.068;2023-05-07T08:07:10;99844.47;;;12.74;100.00
69842;BME280;57138;51.326;-0.068;2023-05-07T08:09:36;99852.94;;;12.77;100.00
69842;BME280;57138;51.326;-0.068;2023-05-07T08:12:02;99852.50;;;12.81;100.00
69842;BME280;57138;51.326;-0.068;2023-05-07T08:14:28;99862.00;;;12.83;100.00
69842;BME280;57138;51.326;-0.068;2023-05-07T08:16:54;99852.91;;;12.84;100.00
69842;BME280;57138;51.326;-0.068;2023-05-07T08:19:19;99858.25;;;12.91;100.00
69842;BME280;57138;51.326;-0.068;2023-05-07T08:21:45;99864.63;;;12.97;100.00
69842;BME280;57138;51.326;-0.068;2023-05-07T08:24:13;99860.47;;;13.01;100.00
69842;BME280;57138;51.326;-0.068;2023-05-07T08:26:38;99858.22;;;13.04;100.00
69842;BME280;57138;51.326;-0.068;2023-05-07T08:29:04;99861.06;;;13.09;100.00
69842;BME280;57138;51.326;-0.068;2023-05-07T08:31:30;99868.47;;;13.14;100.00
69842;BME280;57138;51.326;-0.068;2023-05-07T08:33:56;99862.25;;;13.20;100.00
69842;BME280;57138;51.326;-0.068;2023-05-07T08:36:22;99870.25;;;13.27;100.00
69842;BME280;57138;51.326;-0.068;2023-05-07T08:38:47;99871.28;;;13.33;100.00
69842;BME280;57138;51.326;-0.068;2023-05-07T08:41:14;99874.59;;;13.35;100.00
69842;BME280;57138;51.326;-0.068;2023-05-07T08:43:41;99875.81;;;13.39;100.00
69842;BME280;57138;51.326;-0.068;2023-05-07T08:46:08;99881.97;;;13.46;100.00
69842;BME280;57138;51.326;-0.068;2023-05-07T08:48:35;99880.06;;;13.53;100.00
69842;BME280;57138;51.326;-0.068;2023-05-07T08:51:01;99878.16;;;13.60;100.00
69842;BME280;57138;51.326;-0.068;2023-05-07T08:53:26;99871.94;;;13.66;100.00
69842;BME280;57138;51.326;-0.068;2023-05-07T08:55:52;99870.59;;;13.76;100.00
69842;BME280;57138;51.326;-0.068;2023-05-07T08:58:18;99873.03;;;13.84;100.00
69842;BME280;57138;51.326;-0.068;2023-05-07T09:00:44;99877.97;;;13.87;99.97
69842;BME280;57138;51.326;-0.068;2023-05-07T09:03:10;99885.16;;;13.93;100.00
69842;BME280;57138;51.326;-0.068;2023-05-07T09:05:39;99877.25;;;13.98;100.00
69842;BME280;57138;51.326;-0.068;2023-05-07T09:08:06;99884.81;;;14.08;100.00
69842;BME280;57138;51.326;-0.068;2023-05-07T09:10:35;99891.34;;;14.19;100.00
69842;BME280;57138;51.326;-0.068;2023-05-07T09:13:02;99884.66;;;14.28;100.00
69842;BME280;57138;51.326;-0.068;2023-05-07T09:15:28;99884.34;;;14.36;99.63
69842;BME280;57138;51.326;-0.068;2023-05-07T09:17:53;99886.56;;;14.46;99.76
69842;BME280;57138;51.326;-0.068;2023-05-07T09:20:19;99889.75;;;14.55;99.00
69842;BME280;57138;51.326;-0.068;2023-05-07T09:22:44;99883.91;;;14.65;98.73
69842;BME280;57138;51.326;-0.068;2023-05-07T09:25:10;99888.78;;;14.74;98.10
69842;BME280;57138;51.326;-0.068;2023-05-07T09:27:36;99879.94;;;14.86;98.93
69842;BME280;57138;51.326;-0.068;2023-05-07T09:30:08;99894.59;;;15.08;98.94
69842;BME280;57138;51.326;-0.068;2023-05-07T09:32:37;99896.06;;;15.23;96.75
69842;BME280;57138;51.326;-0.068;2023-05-07T09:35:06;99901.72;;;15.33;96.60
69842;BME280;57138;51.326;-0.068;2023-05-07T09:37:40;99901.41;;;15.41;96.47
69842;BME280;57138;51.326;-0.068;2023-05-07T09:40:06;99905.66;;;15.49;96.21
69842;BME280;57138;51.326;-0.068;2023-05-07T09:42:32;99909.75;;;15.52;96.19
69842;BME280;57138;51.326;-0.068;2023-05-07T09:44:59;99911.88;;;15.50;94.35
69842;BME280;57138;51.326;-0.068;2023-05-07T09:47:24;99923.47;;;15.50;95.33
69842;BME280;57138;51.326;-0.068;2023-05-07T09:49:55;99919.38;;;15.48;95.41
69842;BME280;57138;51.326;-0.068;2023-05-07T09:52:22;99919.72;;;15.51;95.43
69842;BME280;57138;51.326;-0.068;2023-05-07T09:54:50;99924.31;;;15.51;94.57
69842;BME280;57138;51.326;-0.068;2023-05-07T09:57:16;99928.03;;;15.50;95.35
69842;BME280;57138;51.326;-0.068;2023-05-07T09:59:42;99932.97;;;15.53;95.40
69842;BME280;57138;51.326;-0.068;2023-05-07T10:02:09;99935.91;;;15.51;95.16
69842;BME280;57138;51.326;-0.068;2023-05-07T10:04:35;99936.13;;;15.50;95.23
69842;BME280;57138;51.326;-0.068;2023-05-07T10:07:01;99938.22;;;15.48;94.66
69842;BME280;57138;51.326;-0.068;2023-05-07T10:09:28;99943.47;;;15.42;94.25
69842;BME280;57138;51.326;-0.068;2023-05-07T10:11:54;99943.22;;;15.44;94.79
69842;BME280;57138;51.326;-0.068;2023-05-07T10:14:21;99935.53;;;15.48;94.82
69842;BME280;57138;51.326;-0.068;2023-05-07T10:16:47;99931.94;;;15.54;95.28
69842;BME280;57138;51.326;-0.068;2023-05-07T10:19:14;99933.25;;;15.63;95.55
69842;BME280;57138;51.326;-0.068;2023-05-07T10:21:44;99939.13;;;15.72;94.31
69842;BME280;57138;51.326;-0.068;2023-05-07T10:24:22;99946.69;;;15.81;93.67
69842;BME280;57138;51.326;-0.068;2023-05-07T10:26:52;99948.91;;;15.85;93.64
69842;BME280;57138;51.326;-0.068;2023-05-07T10:29:32;99954.47;;;15.90;94.18
69842;BME280;57138;51.326;-0.068;2023-05-07T10:34:36;99957.88;;;15.97;92.74
69842;BME280;57138;51.326;-0.068;2023-05-07T10:37:03;99955.56;;;16.01;93.58
69842;BME280;57138;51.326;-0.068;2023-05-07T10:39:30;99950.16;;;16.01;93.09
69842;BME280;57138;51.326;-0.068;2023-05-07T10:41:56;99959.63;;;16.03;91.23
69842;BME280;57138;51.326;-0.068;2023-05-07T10:44:28;99966.91;;;16.03;90.59
69842;BME280;57138;51.326;-0.068;2023-05-07T10:47:11;99967.16;;;16.01;91.22
69842;BME280;57138;51.326;-0.068;2023-05-07T10:52:30;99969.16;;;16.06;91.02
69842;BME280;57138;51.326;-0.068;2023-05-07T10:57:42;99975.41;;;16.18;91.35
69842;BME280;57138;51.326;-0.068;2023-05-07T11:05:28;99985.84;;;16.26;91.49
69842;BME280;57138;51.326;-0.068;2023-05-07T11:08:01;99979.41;;;16.27;91.57
69842;BME280;57138;51.326;-0.068;2023-05-07T11:10:50;99982.44;;;16.31;90.26
69842;BME280;57138;51.326;-0.068;2023-05-07T11:13:16;99980.34;;;16.33;89.22
69842;BME280;57138;51.326;-0.068;2023-05-07T11:15:46;99978.25;;;16.35;87.54
69842;BME280;57138;51.326;-0.068;2023-05-07T11:18:16;99986.91;;;16.37;88.62
69842;BME280;57138;51.326;-0.068;2023-05-07T11:20:46;99983.66;;;16.35;89.14
69842;BME280;57138;51.326;-0.068;2023-05-07T11:23:54;99985.72;;;16.33;87.18
69842;BME280;57138;51.326;-0.068;2023-05-07T11:26:20;99984.69;;;16.34;87.81
69842;BME280;57138;51.326;-0.068;2023-05-07T11:28:49;99990.66;;;16.36;88.89
69842;BME280;57138;51.326;-0.068;2023-05-07T11:31:21;99990.66;;;16.36;88.49
69842;BME280;57138;51.326;-0.068;2023-05-07T11:33:51;100002.53;;;16.47;88.27
69842;BME280;57138;51.326;-0.068;2023-05-07T11:36:18;100002.75;;;16.45;88.26
69842;BME280;57138;51.326;-0.068;2023-05-07T11:38:45;100012.31;;;16.60;88.30
69842;BME280;57138;51.326;-0.068;2023-05-07T11:41:10;100018.03;;;16.63;88.50
69842;BME280;57138;51.326;-0.068;2023-05-07T11:43:36;99997.50;;;16.62;88.12
69842;BME280;57138;51.326;-0.068;2023-05-07T11:46:07;100008.31;;;16.74;87.29
69842;BME280;57138;51.326;-0.068;2023-05-07T11:48:33;100015.22;;;16.70;86.30
69842;BME280;57138;51.326;-0.068;2023-05-07T11:51:01;100013.59;;;16.69;86.21
69842;BME280;57138;51.326;-0.068;2023-05-07T11:53:34;100005.50;;;16.69;86.03
69842;BME280;57138;51.326;-0.068;2023-05-07T11:56:00;100014.44;;;16.81;86.57
69842;BME280;57138;51.326;-0.068;2023-05-07T11:58:25;100014.22;;;16.95;86.21
69842;BME280;57138;51.326;-0.068;2023-05-07T12:00:53;100022.09;;;17.08;85.80
69842;BME280;57138;51.326;-0.068;2023-05-07T12:03:19;100014.19;;;17.18;84.98
69842;BME280;57138;51.326;-0.068;2023-05-07T12:05:45;100013.94;;;17.32;85.18
69842;BME280;57138;51.326;-0.068;2023-05-07T12:08:17;100022.38;;;17.47;85.19
69842;BME280;57138;51.326;-0.068;2023-05-07T12:10:44;100010.94;;;17.57;84.94
69842;BME280;57138;51.326;-0.068;2023-05-07T12:13:20;100017.41;;;17.85;83.44
69842;BME280;57138;51.326;-0.068;2023-05-07T12:15:46;100021.16;;;17.95;83.07
69842;BME280;57138;51.326;-0.068;2023-05-07T12:18:15;100020.78;;;18.04;82.62
69842;BME280;57138;51.326;-0.068;2023-05-07T12:20:41;100026.38;;;18.14;81.29
69842;BME280;57138;51.326;-0.068;2023-05-07T12:23:06;100019.50;;;18.23;80.33
69842;BME280;57138;51.326;-0.068;2023-05-07T12:25:35;100010.91;;;18.26;80.23
69842;BME280;57138;51.326;-0.068;2023-05-07T12:28:02;100015.41;;;18.38;80.01
69842;BME280;57138;51.326;-0.068;2023-05-07T12:30:28;100017.13;;;18.44;78.74
69842;BME280;57138;51.326;-0.068;2023-05-07T12:32:54;100017.22;;;18.49;79.26
69842;BME280;57138;51.326;-0.068;2023-05-07T12:35:39;100023.78;;;18.53;78.85
69842;BME280;57138;51.326;-0.068;2023-05-07T12:38:16;100015.66;;;18.53;78.55
69842;BME280;57138;51.326;-0.068;2023-05-07T12:40:46;100026.38;;;18.65;78.13
69842;BME280;57138;51.326;-0.068;2023-05-07T12:43:17;100018.03;;;18.66;76.46
69842;BME280;57138;51.326;-0.068;2023-05-07T12:45:47;100020.84;;;18.72;76.73
69842;BME280;57138;51.326;-0.068;2023-05-07T12:48:13;100018.69;;;18.74;76.30
69842;BME280;57138;51.326;-0.068;2023-05-07T12:50:39;100023.59;;;18.77;75.63